sensor_id;sensor_type;location;lat;lon;timestamp;temperature;humidity
71304;DHT22;59091;47.446;19.148;2023-07-02T00:01:44;23.85;64.15
71304;DHT22;59091;47.446;19.148;2023-07-02T00:04:10;23.78;64.37
71304;DHT22;59091;47.446;19.148;2023-07-02T00:06:39;23.81;64.37
71304;DHT22;59091;47.446;19.148;2023-07-02T00:09:11;23.88;64.06
71304;DHT22;59091;47.446;19.148;2023-07-02T00:11:38;23.80;64.38
71304;DHT22;59091;47.446;19.148;2023-07-02T00:14:04;23.83;64.12
71304;DHT22;59091;47.446;19.148;2023-07-02T00:16:29;23.97;63.65
71304;DHT22;59091;47.446;19.148;2023-07-02T00:18:55;23.67;64.48
71304;DHT22;59091;47.446;19.148;2023-07-02T00:21:20;23.77;64.14
71304;DHT22;59091;47.446;19.148;2023-07-02T00:23:46;23.90;63.64
71304;DHT22;59091;47.446;19.148;2023-07-02T00:26:12;23.91;63.80
71304;DHT22;59091;47.446;19.148;2023-07-02T00:28:37;23.88;63.87
71304;DHT22;59091;47.446;19.148;2023-07-02T00:31:03;23.84;63.92
71304;DHT22;59091;47.446;19.148;2023-07-02T00:33:30;23.81;63.79
71304;DHT22;59091;47.446;19.148;2023-07-02T00:35:56;23.90;63.63
71304;DHT22;59091;47.446;19.148;2023-07-02T00:38:22;23.88;63.54
71304;DHT22;59091;47.446;19.148;2023-07-02T00:40:48;23.78;63.82
71304;DHT22;59091;47.446;19.148;2023-07-02T00:43:13;23.73;63.81
71304;DHT22;59091;47.446;19.148;2023-07-02T00:45:39;23.80;63.66
71304;DHT22;59091;47.446;19.148;2023-07-02T00:48:05;23.83;63.40
71304;DHT22;59091;47.446;19.148;2023-07-02T00:50:31;23.90;63.12
71304;DHT22;59091;47.446;19.148;2023-07-02T00:52:57;23.71;63.33
71304;DHT22;59091;47.446;19.148;2023-07-02T00:55:23;23.69;63.55
71304;DHT22;59091;47.446;19.148;2023-07-02T00:57:49;23.77;63.10
71304;DHT22;59091;47.446;19.148;2023-07-02T01:00:15;23.81;62.94
71304;DHT22;59091;47.446;19.148;2023-07-02T01:02:40;23.81;62.65
71304;DHT22;59091;47.446;19.148;2023-07-02T01:05:15;23.93;62.60
71304;DHT22;59091;47.446;19.148;2023-07-02T01:07:41;24.00;62.25
71304;DHT22;59091;47.446;19.148;2023-07-02T01:10:06;23.96;62.20
71304;DHT22;59091;47.446;19.148;2023-07-02T01:12:33;23.84;62.33
71304;DHT22;59091;47.446;19.148;2023-07-02T01:15:00;23.94;62.06
71304;DHT22;59091;47.446;19.148;2023-07-02T01:17:28;23.85;62.23
71304;DHT22;59091;47.446;19.148;2023-07-02T01:19:55;23.75;62.36
71304;DHT22;59091;47.446;19.148;2023-07-02T01:22:28;23.75;62.58
71304;DHT22;59091;47.446;19.148;2023-07-02T01:24:54;23.84;62.11
71304;DHT22;59091;47.446;19.148;2023-07-02T01:27:20;23.93;61.87
71304;DHT22;59091;47.446;19.148;2023-07-02T01:29:47;23.88;61.86
71304;DHT22;59091;47.446;19.148;2023-07-02T01:32:15;23.85;61.95
71304;DHT22;59091;47.446;19.148;2023-07-02T01:34:41;23.83;61.71
71304;DHT22;59091;47.446;19.148;2023-07-02T01:37:09;23.83;61.66
71304;DHT22;59091;47.446;19.148;2023-07-02T01:39:35;23.83;61.60
71304;DHT22;59091;47.446;19.148;2023-07-02T01:42:14;23.78;61.41
71304;DHT22;59091;47.446;19.148;2023-07-02T01:44:43;23.83;61.68
71304;DHT22;59091;47.446;19.148;2023-07-02T01:47:09;23.84;61.25
71304;DHT22;59091;47.446;19.148;2023-07-02T01:49:35;23.85;61.05
71304;DHT22;59091;47.446;19.148;2023-07-02T01:52:03;23.83;60.75
71304;DHT22;59091;47.446;19.148;2023-07-02T01:54:30;23.77;60.72
71304;DHT22;59091;47.446;19.148;2023-07-02T01:56:57;23.64;60.57
71304;DHT22;59091;47.446;19.148;2023-07-02T01:59:23;23.69;60.34
71304;DHT22;59091;47.446;19.148;2023-07-02T02:01:49;23.63;60.24
71304;DHT22;59091;47.446;19.148;2023-07-02T02:04:14;23.64;60.21
71304;DHT22;59091;47.446;19.148;2023-07-02T02:06:41;23.52;60.18
71304;DHT22;59091;47.446;19.148;2023-07-02T02:09:07;23.38;60.26
71304;DHT22;59091;47.446;19.148;2023-07-02T02:11:37;23.33;60.36
71304;DHT22;59091;47.446;19.148;2023-07-02T02:14:03;23.32;60.44
71304;DHT22;59091;47.446;19.148;2023-07-02T02:16:28;23.34;60.30
71304;DHT22;59091;47.446;19.148;2023-07-02T02:18:54;23.27;60.28
71304;DHT22;59091;47.446;19.148;2023-07-02T02:21:20;23.33;59.94
71304;DHT22;59091;47.446;19.148;2023-07-02T02:23:46;23.36;59.74
71304;DHT22;59091;47.446;19.148;2023-07-02T02:26:11;23.22;60.03
71304;DHT22;59091;47.446;19.148;2023-07-02T02:28:37;23.19;59.72
71304;DHT22;59091;47.446;19.148;2023-07-02T02:31:02;23.23;59.48
71304;DHT22;59091;47.446;19.148;2023-07-02T02:33:28;23.16;59.66
71304;DHT22;59091;47.446;19.148;2023-07-02T02:35:54;22.82;60.24
71304;DHT22;59091;47.446;19.148;2023-07-02T02:38:19;22.98;59.96
71304;DHT22;59091;47.446;19.148;2023-07-02T02:40:45;23.01;59.76
71304;DHT22;59091;47.446;19.148;2023-07-02T02:43:10;23.06;59.54
71304;DHT22;59091;47.446;19.148;2023-07-02T02:45:36;22.94;59.85
71304;DHT22;59091;47.446;19.148;2023-07-02T02:48:01;22.92;59.95
71304;DHT22;59091;47.446;19.148;2023-07-02T02:50:26;22.90;60.01
71304;DHT22;59091;47.446;19.148;2023-07-02T02:52:52;22.96;59.73
71304;DHT22;59091;47.446;19.148;2023-07-02T02:55:19;22.72;60.23
71304;DHT22;59091;47.446;19.148;2023-07-02T02:57:44;22.65;60.52
71304;DHT22;59091;47.446;19.148;2023-07-02T03:00:10;22.65;60.65
71304;DHT22;59091;47.446;19.148;2023-07-02T03:02:37;22.61;60.54
71304;DHT22;59091;47.446;19.148;2023-07-02T03:05:03;22.47;60.91
71304;DHT22;59091;47.446;19.148;2023-07-02T03:07:29;22.51;60.79
71304;DHT22;59091;47.446;19.148;2023-07-02T03:09:54;22.47;60.77
71304;DHT22;59091;47.446;19.148;2023-07-02T03:12:21;22.58;60.36
71304;DHT22;59091;47.446;19.148;2023-07-02T03:14:46;22.45;60.67
71304;DHT22;59091;47.446;19.148;2023-07-02T03:17:16;22.47;60.56
71304;DHT22;59091;47.446;19.148;2023-07-02T03:19:42;22.39;60.73
71304;DHT22;59091;47.446;19.148;2023-07-02T03:22:07;22.29;60.99
71304;DHT22;59091;47.446;19.148;2023-07-02T03:24:33;22.51;60.55
71304;DHT22;59091;47.446;19.148;2023-07-02T03:26:58;22.58;60.11
71304;DHT22;59091;47.446;19.148;2023-07-02T03:29:23;22.54;60.14
71304;DHT22;59091;47.446;19.148;2023-07-02T03:31:49;22.54;60.18
71304;DHT22;59091;47.446;19.148;2023-07-02T03:34:14;22.55;59.91
71304;DHT22;59091;47.446;19.148;2023-07-02T03:36:40;22.54;60.00
71304;DHT22;59091;47.446;19.148;2023-07-02T03:39:05;22.67;59.49
71304;DHT22;59091;47.446;19.148;2023-07-02T03:41:31;22.54;59.77
71304;DHT22;59091;47.446;19.148;2023-07-02T03:43:57;22.67;59.80
71304;DHT22;59091;47.446;19.148;2023-07-02T03:46:22;22.68;59.51
71304;DHT22;59091;47.446;19.148;2023-07-02T03:48:48;22.67;59.32
71304;DHT22;59091;47.446;19.148;2023-07-02T03:51:15;22.78;59.01
71304;DHT22;59091;47.446;19.148;2023-07-02T03:53:41;22.81;58.72
71304;DHT22;59091;47.446;19.148;2023-07-02T03:56:07;22.90;58.78
71304;DHT22;59091;47.446;19.148;2023-07-02T03:58:32;22.92;58.41
71304;DHT22;59091;47.446;19.148;2023-07-02T04:00:59;23.03;58.39
71304;DHT22;59091;47.446;19.148;2023-07-02T04:03:24;23.13;58.26
71304;DHT22;59091;47.446;19.148;2023-07-02T04:05:50;23.26;58.07
71304;DHT22;59091;47.446;19.148;2023-07-02T04:08:15;23.20;57.58
71304;DHT22;59091;47.446;19.148;2023-07-02T04:10:41;23.45;57.75
71304;DHT22;59091;47.446;19.148;2023-07-02T04:13:07;23.29;57.62
71304;DHT22;59091;47.446;19.148;2023-07-02T04:15:33;23.52;57.07
71304;DHT22;59091;47.446;19.148;2023-07-02T04:17:58;23.33;56.91
71304;DHT22;59091;47.446;19.148;2023-07-02T04:20:24;23.45;56.88
71304;DHT22;59091;47.446;19.148;2023-07-02T04:22:50;23.59;56.47
71304;DHT22;59091;47.446;19.148;2023-07-02T04:25:16;23.62;56.23
71304;DHT22;59091;47.446;19.148;2023-07-02T04:27:42;23.78;55.98
71304;DHT22;59091;47.446;19.148;2023-07-02T04:30:11;23.83;55.94
71304;DHT22;59091;47.446;19.148;2023-07-02T04:32:38;23.90;55.65
71304;DHT22;59091;47.446;19.148;2023-07-02T04:35:07;23.97;55.36
71304;DHT22;59091;47.446;19.148;2023-07-02T04:37:32;23.87;55.39
71304;DHT22;59091;47.446;19.148;2023-07-02T04:39:58;24.11;55.07
71304;DHT22;59091;47.446;19.148;2023-07-02T04:42:23;24.15;54.89
71304;DHT22;59091;47.446;19.148;2023-07-02T04:44:55;24.18;54.92
71304;DHT22;59091;47.446;19.148;2023-07-02T04:47:21;24.25;55.26
71304;DHT22;59091;47.446;19.148;2023-07-02T04:49:47;24.10;54.92
71304;DHT22;59091;47.446;19.148;2023-07-02T04:52:12;24.21;54.58
71304;DHT22;59091;47.446;19.148;2023-07-02T04:54:38;24.24;54.63
71304;DHT22;59091;47.446;19.148;2023-07-02T04:57:03;24.25;55.01
71304;DHT22;59091;47.446;19.148;2023-07-02T04:59:29;24.47;55.20
71304;DHT22;59091;47.446;19.148;2023-07-02T05:01:54;24.62;55.70
71304;DHT22;59091;47.446;19.148;2023-07-02T05:04:20;24.75;55.23
71304;DHT22;59091;47.446;19.148;2023-07-02T05:06:45;24.96;54.33
71304;DHT22;59091;47.446;19.148;2023-07-02T05:09:10;25.13;54.26
71304;DHT22;59091;47.446;19.148;2023-07-02T05:11:36;25.14;53.28
71304;DHT22;59091;47.446;19.148;2023-07-02T05:14:01;25.12;53.50
71304;DHT22;59091;47.446;19.148;2023-07-02T05:16:27;25.22;53.44
71304;DHT22;59091;47.446;19.148;2023-07-02T05:18:52;25.24;53.15
71304;DHT22;59091;47.446;19.148;2023-07-02T05:21:18;25.28;52.66
71304;DHT22;59091;47.446;19.148;2023-07-02T05:23:44;25.23;52.86
71304;DHT22;59091;47.446;19.148;2023-07-02T05:26:09;25.26;53.40
71304;DHT22;59091;47.446;19.148;2023-07-02T05:28:34;25.44;53.63
71304;DHT22;59091;47.446;19.148;2023-07-02T05:31:00;25.65;52.73
71304;DHT22;59091;47.446;19.148;2023-07-02T05:33:25;25.71;52.56
71304;DHT22;59091;47.446;19.148;2023-07-02T05:35:51;25.91;52.09
71304;DHT22;59091;47.446;19.148;2023-07-02T05:38:17;26.02;51.72
71304;DHT22;59091;47.446;19.148;2023-07-02T05:40:44;26.16;51.55
71304;DHT22;59091;47.446;19.148;2023-07-02T05:43:09;26.33;51.01
71304;DHT22;59091;47.446;19.148;2023-07-02T05:45:34;26.53;51.03
71304;DHT22;59091;47.446;19.148;2023-07-02T05:48:00;26.72;50.52
71304;DHT22;59091;47.446;19.148;2023-07-02T05:50:26;26.87;49.54
71304;DHT22;59091;47.446;19.148;2023-07-02T05:52:51;27.01;48.69
71304;DHT22;59091;47.446;19.148;2023-07-02T05:55:17;27.11;48.31
71304;DHT22;59091;47.446;19.148;2023-07-02T05:57:42;27.14;48.34
71304;DHT22;59091;47.446;19.148;2023-07-02T06:00:08;27.38;48.02
71304;DHT22;59091;47.446;19.148;2023-07-02T06:02:33;27.15;47.56
71304;DHT22;59091;47.446;19.148;2023-07-02T06:04:59;27.27;47.04
71304;DHT22;59091;47.446;19.148;2023-07-02T06:07:25;27.30;47.55
71304;DHT22;59091;47.446;19.148;2023-07-02T06:09:50;27.31;46.99
71304;DHT22;59091;47.446;19.148;2023-07-02T06:12:16;27.44;46.50
71304;DHT22;59091;47.446;19.148;2023-07-02T06:14:41;27.59;46.35
71304;DHT22;59091;47.446;19.148;2023-07-02T06:17:07;27.34;45.90
71304;DHT22;59091;47.446;19.148;2023-07-02T06:19:33;27.41;46.25
71304;DHT22;59091;47.446;19.148;2023-07-02T06:21:59;27.55;45.61
71304;DHT22;59091;47.446;19.148;2023-07-02T06:24:25;27.68;45.61
71304;DHT22;59091;47.446;19.148;2023-07-02T06:26:50;27.93;45.60
71304;DHT22;59091;47.446;19.148;2023-07-02T06:29:16;28.48;44.56
71304;DHT22;59091;47.446;19.148;2023-07-02T06:31:41;28.79;44.03
71304;DHT22;59091;47.446;19.148;2023-07-02T06:34:07;28.88;44.43
71304;DHT22;59091;47.446;19.148;2023-07-02T06:36:34;29.11;42.88
71304;DHT22;59091;47.446;19.148;2023-07-02T06:38:59;28.78;43.65
71304;DHT22;59091;47.446;19.148;2023-07-02T06:41:25;29.16;42.43
71304;DHT22;59091;47.446;19.148;2023-07-02T06:43:50;29.09;42.55
71304;DHT22;59091;47.446;19.148;2023-07-02T06:46:16;29.30;42.80
71304;DHT22;59091;47.446;19.148;2023-07-02T06:48:41;29.76;42.13
71304;DHT22;59091;47.446;19.148;2023-07-02T06:51:07;29.67;41.25
71304;DHT22;59091;47.446;19.148;2023-07-02T06:53:33;29.58;41.37
71304;DHT22;59091;47.446;19.148;2023-07-02T06:55:59;28.95;41.56
71304;DHT22;59091;47.446;19.148;2023-07-02T06:58:24;28.84;42.18
71304;DHT22;59091;47.446;19.148;2023-07-02T07:00:50;28.64;42.62
71304;DHT22;59091;47.446;19.148;2023-07-02T07:03:16;28.27;43.37
71304;DHT22;59091;47.446;19.148;2023-07-02T07:05:41;28.20;42.77
71304;DHT22;59091;47.446;19.148;2023-07-02T07:08:07;28.09;43.17
71304;DHT22;59091;47.446;19.148;2023-07-02T07:10:32;27.99;43.07
71304;DHT22;59091;47.446;19.148;2023-07-02T07:13:03;27.81;43.37
71304;DHT22;59091;47.446;19.148;2023-07-02T07:15:33;27.52;43.96
71304;DHT22;59091;47.446;19.148;2023-07-02T07:18:02;27.55;43.38
71304;DHT22;59091;47.446;19.148;2023-07-02T07:20:29;27.14;44.37
71304;DHT22;59091;47.446;19.148;2023-07-02T07:22:54;26.98;45.24
71304;DHT22;59091;47.446;19.148;2023-07-02T07:25:20;27.07;44.87
71304;DHT22;59091;47.446;19.148;2023-07-02T07:27:45;27.21;44.68
71304;DHT22;59091;47.446;19.148;2023-07-02T07:30:11;27.42;43.65
71304;DHT22;59091;47.446;19.148;2023-07-02T07:32:36;27.92;43.32
71304;DHT22;59091;47.446;19.148;2023-07-02T07:35:02;28.48;42.48
71304;DHT22;59091;47.446;19.148;2023-07-02T07:37:28;28.94;41.70
71304;DHT22;59091;47.446;19.148;2023-07-02T07:39:53;29.58;40.63
71304;DHT22;59091;47.446;19.148;2023-07-02T07:42:19;29.48;39.54
71304;DHT22;59091;47.446;19.148;2023-07-02T07:44:45;29.80;39.02
71304;DHT22;59091;47.446;19.148;2023-07-02T07:47:11;30.25;38.76
71304;DHT22;59091;47.446;19.148;2023-07-02T07:49:36;30.59;37.86
71304;DHT22;59091;47.446;19.148;2023-07-02T07:52:02;30.69;38.10
71304;DHT22;59091;47.446;19.148;2023-07-02T07:54:28;30.85;37.03
71304;DHT22;59091;47.446;19.148;2023-07-02T07:56:54;30.90;36.25
71304;DHT22;59091;47.446;19.148;2023-07-02T07:59:20;31.10;35.82
71304;DHT22;59091;47.446;19.148;2023-07-02T08:01:45;31.33;35.56
71304;DHT22;59091;47.446;19.148;2023-07-02T08:04:12;31.91;34.85
71304;DHT22;59091;47.446;19.148;2023-07-02T08:06:37;31.73;35.05
71304;DHT22;59091;47.446;19.148;2023-07-02T08:09:03;32.00;33.85
71304;DHT22;59091;47.446;19.148;2023-07-02T08:11:28;32.10;34.15
71304;DHT22;59091;47.446;19.148;2023-07-02T08:13:54;32.68;34.56
71304;DHT22;59091;47.446;19.148;2023-07-02T08:16:19;32.62;33.30
71304;DHT22;59091;47.446;19.148;2023-07-02T08:18:44;32.61;33.71
71304;DHT22;59091;47.446;19.148;2023-07-02T08:21:10;32.48;33.01
71304;DHT22;59091;47.446;19.148;2023-07-02T08:23:36;32.73;32.70
71304;DHT22;59091;47.446;19.148;2023-07-02T08:26:02;32.70;32.31
71304;DHT22;59091;47.446;19.148;2023-07-02T08:28:28;32.87;33.15
71304;DHT22;59091;47.446;19.148;2023-07-02T08:30:54;33.17;31.04
71304;DHT22;59091;47.446;19.148;2023-07-02T08:33:19;32.96;32.05
71304;DHT22;59091;47.446;19.148;2023-07-02T08:35:45;33.13;32.56
71304;DHT22;59091;47.446;19.148;2023-07-02T08:38:11;33.26;32.33
71304;DHT22;59091;47.446;19.148;2023-07-02T08:40:36;33.21;32.87
71304;DHT22;59091;47.446;19.148;2023-07-02T08:43:02;32.82;32.36
71304;DHT22;59091;47.446;19.148;2023-07-02T08:45:27;32.68;33.80
71304;DHT22;59091;47.446;19.148;2023-07-02T08:47:53;32.69;33.58
71304;DHT22;59091;47.446;19.148;2023-07-02T08:50:23;32.59;34.68
71304;DHT22;59091;47.446;19.148;2023-07-02T08:52:49;32.82;34.85
71304;DHT22;59091;47.446;19.148;2023-07-02T08:55:15;32.89;34.87
71304;DHT22;59091;47.446;19.148;2023-07-02T08:57:49;33.26;33.60
71304;DHT22;59091;47.446;19.148;2023-07-02T09:00:15;33.70;33.95
71304;DHT22;59091;47.446;19.148;2023-07-02T09:02:40;32.65;35.02
71304;DHT22;59091;47.446;19.148;2023-07-02T09:05:06;32.72;34.22
71304;DHT22;59091;47.446;19.148;2023-07-02T09:07:32;32.62;34.69
71304;DHT22;59091;47.446;19.148;2023-07-02T09:09:57;32.66;34.43
71304;DHT22;59091;47.446;19.148;2023-07-02T09:12:27;31.88;34.64
71304;DHT22;59091;47.446;19.148;2023-07-02T09:15:06;31.66;36.19
71304;DHT22;59091;47.446;19.148;2023-07-02T09:17:34;31.06;34.26
71304;DHT22;59091;47.446;19.148;2023-07-02T09:20:01;31.12;34.71
71304;DHT22;59091;47.446;19.148;2023-07-02T09:22:28;30.78;35.22
71304;DHT22;59091;47.446;19.148;2023-07-02T09:24:58;30.72;35.25
71304;DHT22;59091;47.446;19.148;2023-07-02T09:27:40;30.85;35.82
71304;DHT22;59091;47.446;19.148;2023-07-02T09:32:35;30.48;37.27
71304;DHT22;59091;47.446;19.148;2023-07-02T09:35:01;30.54;37.60
71304;DHT22;59091;47.446;19.148;2023-07-02T09:37:27;30.48;37.24
71304;DHT22;59091;47.446;19.148;2023-07-02T09:39:54;30.71;37.18
71304;DHT22;59091;47.446;19.148;2023-07-02T09:42:21;30.90;37.37
71304;DHT22;59091;47.446;19.148;2023-07-02T09:44:46;30.83;36.67
71304;DHT22;59091;47.446;19.148;2023-07-02T09:47:14;30.74;36.68
71304;DHT22;59091;47.446;19.148;2023-07-02T09:49:48;30.68;37.30
71304;DHT22;59091;47.446;19.148;2023-07-02T09:52:16;30.21;38.62
71304;DHT22;59091;47.446;19.148;2023-07-02T09:54:42;30.37;38.46
71304;DHT22;59091;47.446;19.148;2023-07-02T09:57:07;30.24;38.57
71304;DHT22;59091;47.446;19.148;2023-07-02T09:59:33;30.24;38.55
71304;DHT22;59091;47.446;19.148;2023-07-02T10:01:58;30.17;39.13
71304;DHT22;59091;47.446;19.148;2023-07-02T10:04:24;30.10;39.01
71304;DHT22;59091;47.446;19.148;2023-07-02T10:06:53;30.27;38.51
71304;DHT22;59091;47.446;19.148;2023-07-02T10:09:20;30.24;39.11
71304;DHT22;59091;47.446;19.148;2023-07-02T10:11:47;30.40;38.85
71304;DHT22;59091;47.446;19.148;2023-07-02T10:14:12;30.13;39.31
71304;DHT22;59091;47.446;19.148;2023-07-02T10:16:51;30.14;38.00
71304;DHT22;59091;47.446;19.148;2023-07-02T10:19:17;30.13;38.86
71304;DHT22;59091;47.446;19.148;2023-07-02T10:21:43;30.30;39.15
71304;DHT22;59091;47.446;19.148;2023-07-02T10:24:15;30.38;38.54
71304;DHT22;59091;47.446;19.148;2023-07-02T10:27:02;30.47;40.23
71304;DHT22;59091;47.446;19.148;2023-07-02T10:29:30;30.41;38.09
71304;DHT22;59091;47.446;19.148;2023-07-02T10:31:57;30.27;39.39
71304;DHT22;59091;47.446;19.148;2023-07-02T10:34:33;30.21;39.02
71304;DHT22;59091;47.446;19.148;2023-07-02T10:37:03;30.16;38.02
71304;DHT22;59091;47.446;19.148;2023-07-02T10:39:29;30.07;38.34
71304;DHT22;59091;47.446;19.148;2023-07-02T10:42:08;29.90;38.45
71304;DHT22;59091;47.446;19.148;2023-07-02T10:44:47;29.99;38.59
71304;DHT22;59091;47.446;19.148;2023-07-02T10:47:12;29.91;39.13
71304;DHT22;59091;47.446;19.148;2023-07-02T10:49:38;30.10;38.42
71304;DHT22;59091;47.446;19.148;2023-07-02T10:52:03;30.32;38.03
71304;DHT22;59091;47.446;19.148;2023-07-02T10:54:47;30.35;37.95
71304;DHT22;59091;47.446;19.148;2023-07-02T10:57:15;30.37;37.56
71304;DHT22;59091;47.446;19.148;2023-07-02T10:59:46;30.45;38.23
71304;DHT22;59091;47.446;19.148;2023-07-02T11:02:11;30.35;37.93
71304;DHT22;59091;47.446;19.148;2023-07-02T11:04:37;30.57;37.47
71304;DHT22;59091;47.446;19.148;2023-07-02T11:07:04;30.72;37.69
71304;DHT22;59091;47.446;19.148;2023-07-02T11:09:29;30.78;37.44
71304;DHT22;59091;47.446;19.148;2023-07-02T11:11:57;30.98;37.54
71304;DHT22;59091;47.446;19.148;2023-07-02T11:14:35;30.89;37.34
71304;DHT22;59091;47.446;19.148;2023-07-02T11:17:05;30.82;37.00
71304;DHT22;59091;47.446;19.148;2023-07-02T11:19:34;30.78;36.76
71304;DHT22;59091;47.446;19.148;2023-07-02T11:22:00;30.54;36.95
71304;DHT22;59091;47.446;19.148;2023-07-02T11:24:36;30.44;38.00
71304;DHT22;59091;47.446;19.148;2023-07-02T11:27:03;30.28;38.88
71304;DHT22;59091;47.446;19.148;2023-07-02T11:29:30;30.28;38.57
71304;DHT22;59091;47.446;19.148;2023-07-02T11:32:09;30.69;40.56
71304;DHT22;59091;47.446;19.148;2023-07-02T11:34:36;30.81;38.88
71304;DHT22;59091;47.446;19.148;2023-07-02T11:37:02;30.51;37.57
71304;DHT22;59091;47.446;19.148;2023-07-02T11:39:28;30.41;38.09
71304;DHT22;59091;47.446;19.148;2023-07-02T11:41:54;30.41;37.18
71304;DHT22;59091;47.446;19.148;2023-07-02T11:44:19;30.17;37.92
71304;DHT22;59091;47.446;19.148;2023-07-02T11:46:45;30.04;37.85
71304;DHT22;59091;47.446;19.148;2023-07-02T11:49:12;30.14;37.31
71304;DHT22;59091;47.446;19.148;2023-07-02T11:51:41;30.03;37.72
71304;DHT22;59091;47.446;19.148;2023-07-02T11:54:11;30.03;38.45
71304;DHT22;59091;47.446;19.148;2023-07-02T11:56:37;30.13;38.06
71304;DHT22;59091;47.446;19.148;2023-07-02T11:59:03;30.25;38.74
71304;DHT22;59091;47.446;19.148;2023-07-02T12:01:29;30.27;37.83
71304;DHT22;59091;47.446;19.148;2023-07-02T12:03:54;30.48;37.39
71304;DHT22;59091;47.446;19.148;2023-07-02T12:06:20;30.23;37.80
71304;DHT22;59091;47.446;19.148;2023-07-02T12:08:45;30.20;37.62
71304;DHT22;59091;47.446;19.148;2023-07-02T12:11:11;30.23;37.86
71304;DHT22;59091;47.446;19.148;2023-07-02T12:13:36;30.21;36.88
71304;DHT22;59091;47.446;19.148;2023-07-02T12:16:01;30.17;36.86
71304;DHT22;59091;47.446;19.148;2023-07-02T12:18:27;29.86;37.87
71304;DHT22;59091;47.446;19.148;2023-07-02T12:20:52;30.07;38.02
71304;DHT22;59091;47.446;19.148;2023-07-02T12:23:18;30.09;37.83
71304;DHT22;59091;47.446;19.148;2023-07-02T12:25:43;30.18;37.72
71304;DHT22;59091;47.446;19.148;2023-07-02T12:28:08;30.27;37.24
71304;DHT22;59091;47.446;19.148;2023-07-02T12:30:34;30.41;37.08
71304;DHT22;59091;47.446;19.148;2023-07-02T12:32:59;30.11;37.24
71304;DHT22;59091;47.446;19.148;2023-07-02T12:35:25;30.24;36.96
71304;DHT22;59091;47.446;19.148;2023-07-02T12:37:52;30.01;36.89
71304;DHT22;59091;47.446;19.148;2023-07-02T12:40:19;29.93;37.43
71304;DHT22;59091;47.446;19.148;2023-07-02T12:42:46;30.07;37.76
71304;DHT22;59091;47.446;19.148;2023-07-02T12:45:12;30.41;37.93
71304;DHT22;59091;47.446;19.148;2023-07-02T12:47:39;30.48;37.69
71304;DHT22;59091;47.446;19.148;2023-07-02T12:50:05;30.51;37.70
71304;DHT22;59091;47.446;19.148;2023-07-02T12:52:31;30.58;37.34
71304;DHT22;59091;47.446;19.148;2023-07-02T12:54:56;30.48;37.26
71304;DHT22;59091;47.446;19.148;2023-07-02T12:57:22;30.64;37.26
71304;DHT22;59091;47.446;19.148;2023-07-02T12:59:47;30.78;37.14
71304;DHT22;59091;47.446;19.148;2023-07-02T13:02:13;30.67;37.38
71304;DHT22;59091;47.446;19.148;2023-07-02T13:04:45;30.45;36.06
71304;DHT22;59091;47.446;19.148;2023-07-02T13:07:23;30.23;36.08
71304;DHT22;59091;47.446;19.148;2023-07-02T13:09:52;30.38;36.04
71304;DHT22;59091;47.446;19.148;2023-07-02T13:12:17;30.42;35.73
71304;DHT22;59091;47.446;19.148;2023-07-02T13:14:43;30.34;36.46
71304;DHT22;59091;47.446;19.148;2023-07-02T13:17:08;30.14;36.63
71304;DHT22;59091;47.446;19.148;2023-07-02T13:19:34;30.25;36.67
71304;DHT22;59091;47.446;19.148;2023-07-02T13:22:01;30.32;36.21
71304;DHT22;59091;47.446;19.148;2023-07-02T13:24:31;30.25;37.04
71304;DHT22;59091;47.446;19.148;2023-07-02T13:26:57;30.18;37.04
71304;DHT22;59091;47.446;19.148;2023-07-02T13:29:22;30.10;37.37
71304;DHT22;59091;47.446;19.148;2023-07-02T13:31:48;30.16;36.93
71304;DHT22;59091;47.446;19.148;2023-07-02T13:34:13;29.84;37.37
71304;DHT22;59091;47.446;19.148;2023-07-02T13:36:39;29.89;37.53
71304;DHT22;59091;47.446;19.148;2023-07-02T13:39:04;30.00;37.75
71304;DHT22;59091;47.446;19.148;2023-07-02T13:41:30;30.23;37.15
71304;DHT22;59091;47.446;19.148;2023-07-02T13:43:56;30.42;37.24
71304;DHT22;59091;47.446;19.148;2023-07-02T13:46:22;30.38;36.58
71304;DHT22;59091;47.446;19.148;2023-07-02T13:48:47;30.17;35.15
71304;DHT22;59091;47.446;19.148;2023-07-02T13:51:13;30.40;35.23
71304;DHT22;59091;47.446;19.148;2023-07-02T13:53:38;30.45;35.30
71304;DHT22;59091;47.446;19.148;2023-07-02T13:56:04;30.32;35.16
71304;DHT22;59091;47.446;19.148;2023-07-02T14:01:20;30.47;35.30
71304;DHT22;59091;47.446;19.148;2023-07-02T14:03:45;30.48;35.76
71304;DHT22;59091;47.446;19.148;2023-07-02T14:06:10;30.57;35.67
71304;DHT22;59091;47.446;19.148;2023-07-02T14:08:36;30.34;36.02
71304;DHT22;59091;47.446;19.148;2023-07-02T14:11:01;29.97;35.44
71304;DHT22;59091;47.446;19.148;2023-07-02T14:13:27;29.79;35.66
71304;DHT22;59091;47.446;19.148;2023-07-02T14:15:52;29.77;35.98
71304;DHT22;59091;47.446;19.148;2023-07-02T14:18:18;29.91;35.88
71304;DHT22;59091;47.446;19.148;2023-07-02T14:20:43;29.67;36.25
71304;DHT22;59091;47.446;19.148;2023-07-02T14:23:08;29.56;36.96
71304;DHT22;59091;47.446;19.148;2023-07-02T14:25:34;29.62;37.95
71304;DHT22;59091;47.446;19.148;2023-07-02T14:27:59;29.76;37.47
71304;DHT22;59091;47.446;19.148;2023-07-02T14:30:25;29.70;37.21
71304;DHT22;59091;47.446;19.148;2023-07-02T14:32:50;29.72;36.89
71304;DHT22;59091;47.446;19.148;2023-07-02T14:35:16;29.45;37.67
71304;DHT22;59091;47.446;19.148;2023-07-02T14:37:41;29.74;37.22
71304;DHT22;59091;47.446;19.148;2023-07-02T14:40:07;29.60;37.56
71304;DHT22;59091;47.446;19.148;2023-07-02T14:42:33;29.55;37.64
71304;DHT22;59091;47.446;19.148;2023-07-02T14:44:58;29.50;38.01
71304;DHT22;59091;47.446;19.148;2023-07-02T14:47:24;29.67;37.92
71304;DHT22;59091;47.446;19.148;2023-07-02T14:49:50;29.74;38.14
71304;DHT22;59091;47.446;19.148;2023-07-02T14:52:18;29.76;37.95
71304;DHT22;59091;47.446;19.148;2023-07-02T14:54:44;29.84;38.00
71304;DHT22;59091;47.446;19.148;2023-07-02T14:57:10;29.90;37.87
71304;DHT22;59091;47.446;19.148;2023-07-02T14:59:35;29.93;38.31
71304;DHT22;59091;47.446;19.148;2023-07-02T15:02:00;29.69;39.26
71304;DHT22;59091;47.446;19.148;2023-07-02T15:04:27;29.80;39.27
71304;DHT22;59091;47.446;19.148;2023-07-02T15:06:53;29.70;38.64
71304;DHT22;59091;47.446;19.148;2023-07-02T15:09:18;29.74;38.71
71304;DHT22;59091;47.446;19.148;2023-07-02T15:11:44;29.65;38.76
71304;DHT22;59091;47.446;19.148;2023-07-02T15:14:09;29.67;38.84
71304;DHT22;59091;47.446;19.148;2023-07-02T15:16:35;29.80;38.96